createdAt,value
2018-05-21T00:00:32.819Z,75550.91
2018-05-21T00:05:41.803Z,75583.30
2018-05-21T00:08:12.879Z,75584.30
2018-05-21T00:10:44.259Z,75598.47
2018-05-21T00:13:15.555Z,75602.52
2018-05-21T00:15:46.510Z,75611.63
2018-05-21T00:18:17.535Z,75554.95
2018-05-21T00:20:49.076Z,75581.27
2018-05-21T00:23:20.083Z,75549.89
2018-05-21T00:25:51.477Z,75511.42
2018-05-21T00:28:22.514Z,75547.86
2018-05-21T00:30:53.863Z,75557.98
2018-05-21T00:33:24.876Z,75521.55
2018-05-21T00:35:56.264Z,75505.35
2018-05-21T00:38:28.068Z,75473.98
2018-05-21T00:40:59.275Z,75484.09
2018-05-21T00:43:30.354Z,75522.56
2018-05-21T00:46:01.623Z,75534.70
2018-05-21T00:48:32.607Z,75548.88
2018-05-21T00:51:09.727Z,75564.06
2018-05-21T00:53:41.179Z,75541.80
2018-05-21T00:56:12.455Z,75531.67
2018-05-21T00:58:43.906Z,75541.80
2018-05-21T01:01:16.399Z,75529.64
2018-05-21T01:03:47.454Z,75525.59
2018-05-21T01:06:18.423Z,75499.28
2018-05-21T01:08:50.277Z,75554.95
2018-05-21T01:11:21.283Z,75570.13
2018-05-21T01:13:52.298Z,75576.20
2018-05-21T01:16:23.998Z,75581.27
2018-05-21T01:18:55.316Z,75594.42
2018-05-21T01:21:26.359Z,75599.48
2018-05-21T01:23:57.670Z,75603.53
2018-05-21T01:26:28.599Z,75589.36
2018-05-21T01:29:00.003Z,75519.52
2018-05-21T01:31:31.338Z,75518.51
2018-05-21T01:34:02.363Z,75529.64
2018-05-21T01:36:36.371Z,75488.14
2018-05-21T01:39:08.827Z,75450.69
2018-05-21T01:41:39.842Z,75507.38
2018-05-21T01:44:11.088Z,75442.59
2018-05-21T01:46:42.140Z,75438.55
2018-05-21T01:49:13.150Z,75421.34
2018-05-21T01:51:44.478Z,75424.38
2018-05-21T01:54:15.531Z,75427.41
2018-05-21T01:56:47.106Z,75425.39
2018-05-21T01:59:18.361Z,75426.41
2018-05-21T02:01:49.576Z,75422.35
2018-05-21T02:04:21.381Z,75426.41
2018-05-21T02:06:53.643Z,75428.42
2018-05-21T02:09:25.063Z,75440.57
2018-05-21T02:11:56.054Z,75466.89
2018-05-21T02:14:28.246Z,75457.78
2018-05-21T02:16:59.745Z,75481.06
2018-05-21T02:19:31.223Z,75458.80
2018-05-21T02:22:03.195Z,75436.52
2018-05-21T02:24:34.711Z,75501.30
2018-05-21T02:27:06.536Z,75520.53
2018-05-21T02:29:37.771Z,75555.96
2018-05-21T02:32:09.182Z,75585.31
2018-05-21T02:34:40.632Z,75575.20
2018-05-21T02:37:11.678Z,75574.18
2018-05-21T02:39:43.304Z,75593.41
2018-05-21T02:42:14.593Z,75602.52
2018-05-21T02:44:45.610Z,75606.57
2018-05-21T02:47:16.935Z,75620.75
2018-05-21T02:49:47.893Z,75643.02
2018-05-21T02:52:18.853Z,75622.77
2018-05-21T02:54:50.156Z,75631.88
2018-05-21T02:57:21.286Z,75570.13
2018-05-21T02:59:56.607Z,75517.50
2018-05-21T03:02:28.362Z,75501.30
2018-05-21T03:05:00.163Z,75495.23
2018-05-21T03:07:31.687Z,75521.55
2018-05-21T03:10:02.941Z,75510.41
2018-05-21T03:12:34.510Z,75505.35
2018-05-21T03:15:06.686Z,75516.48
2018-05-21T03:17:38.595Z,75485.11
2018-05-21T03:20:20.080Z,75500.29
2018-05-21T03:22:51.294Z,75484.09
2018-05-21T03:25:22.903Z,75525.59
2018-05-21T03:27:54.251Z,75505.35
2018-05-21T03:30:26.186Z,75536.73
2018-05-21T03:32:57.582Z,75503.33
2018-05-21T03:35:29.138Z,75523.57
2018-05-21T03:38:00.377Z,75543.81
2018-05-21T03:40:31.426Z,75519.52
2018-05-21T03:43:03.083Z,75536.73
2018-05-21T03:45:34.467Z,75534.70
2018-05-21T03:48:06.008Z,75515.47
2018-05-21T03:50:38.099Z,75522.56
2018-05-21T03:53:09.482Z,75521.55
2018-05-21T03:55:44.535Z,75547.86
2018-05-21T03:58:53.674Z,75548.88
2018-05-21T04:01:36.595Z,75580.25
2018-05-21T04:04:08.380Z,75583.30
2018-05-21T04:06:40.514Z,75556.97
2018-05-21T04:09:11.555Z,75568.11
2018-05-21T04:11:43.726Z,75571.14
2018-05-21T04:14:15.378Z,75541.80
2018-05-21T04:16:46.956Z,75550.91
2018-05-21T04:19:18.021Z,75555.96
2018-05-21T04:21:49.628Z,75573.17
2018-05-21T04:24:21.309Z,75564.06
2018-05-21T04:26:52.855Z,75542.80
2018-05-21T04:29:35.556Z,75499.28
2018-05-21T04:32:07.390Z,75500.29
2018-05-21T04:34:54.717Z,75433.48
2018-05-21T04:37:26.346Z,75463.85
2018-05-21T04:39:57.705Z,75463.85
2018-05-21T04:42:29.310Z,75444.63
2018-05-21T04:45:01.027Z,75401.09
2018-05-21T04:47:32.824Z,75409.20
2018-05-21T04:50:04.832Z,75444.63
2018-05-21T04:52:36.446Z,75501.30
2018-05-21T04:55:07.966Z,75492.19
2018-05-21T04:57:39.346Z,75442.59
2018-05-21T05:00:10.608Z,75431.46
2018-05-21T05:02:42.067Z,75359.59
2018-05-21T05:05:13.147Z,75359.59
2018-05-21T05:07:46.471Z,75396.04
2018-05-21T05:10:17.419Z,75390.98
2018-05-21T05:12:49.047Z,75336.32
2018-05-21T05:15:21.111Z,75338.34
2018-05-21T05:17:52.554Z,75395.02
2018-05-21T05:20:23.906Z,75352.52
2018-05-21T05:22:55.847Z,75368.71
2018-05-21T05:25:28.087Z,75383.89
2018-05-21T05:27:59.492Z,75396.04
2018-05-21T06:12:44.836Z,75150.09
2018-05-21T06:15:16.117Z,75129.84
2018-05-21T06:17:47.683Z,75053.94
2018-05-21T06:20:19.286Z,75111.63
2018-05-21T06:22:50.982Z,75102.52
2018-05-21T06:25:22.882Z,75036.73
2018-05-21T06:27:54.328Z,75005.36
2018-05-21T06:30:25.363Z,74978.04
2018-05-21T06:32:57.489Z,74946.67
2018-05-21T06:35:28.660Z,74940.59
2018-05-21T06:38:00.522Z,74941.61
2018-05-21T06:40:31.561Z,74925.41
2018-05-21T06:43:02.670Z,74864.70
2018-05-21T06:45:34.556Z,74867.73
2018-05-21T06:48:06.101Z,74874.81
2018-05-21T06:50:44.357Z,74820.16
2018-05-21T06:53:22.184Z,74808.02
2018-05-21T06:55:53.242Z,74826.23
2018-05-21T06:58:24.777Z,74802.96
2018-05-21T07:00:59.891Z,74737.19
2018-05-21T07:03:31.146Z,74696.70
2018-05-21T07:06:16.282Z,74735.16
2018-05-21T07:08:48.139Z,74774.63
2018-05-21T07:11:25.565Z,74688.61
2018-05-21T07:13:57.668Z,74661.29
2018-05-21T07:16:29.434Z,74658.25
2018-05-21T07:19:00.643Z,74707.84
2018-05-21T07:21:32.076Z,74659.27
2018-05-21T07:24:03.331Z,74549.98
2018-05-21T07:26:34.598Z,74492.30
2018-05-21T07:29:05.699Z,74510.52
2018-05-21T07:31:36.978Z,74445.75
2018-05-21T07:34:09.702Z,74550.98
2018-05-21T07:36:41.111Z,74475.09
2018-05-21T07:39:12.764Z,74397.18
2018-05-21T07:41:44.535Z,74485.21
2018-05-21T07:44:32.813Z,74446.77
2018-05-21T07:47:10.675Z,74409.32
2018-05-21T07:49:42.832Z,74394.14
2018-05-21T07:52:15.288Z,74383.02
2018-05-21T07:54:46.687Z,74368.84
2018-05-21T07:57:22.063Z,74325.34
2018-05-21T07:59:53.869Z,74454.86
2018-05-21T08:02:25.020Z,74288.91
2018-05-21T08:04:57.099Z,74333.44
2018-05-21T08:07:28.138Z,74313.20
2018-05-21T08:10:01.591Z,74359.73
2018-05-21T08:12:33.887Z,74301.05
2018-05-21T08:15:05.538Z,74254.51
2018-05-21T08:17:37.895Z,74251.47
2018-05-21T08:20:18.863Z,74250.46
2018-05-21T08:22:50.323Z,74212.02
2018-05-21T08:25:24.366Z,74248.44
2018-05-21T08:27:55.709Z,74232.25
2018-05-21T08:30:28.319Z,74253.50
2018-05-21T08:33:02.947Z,74178.63
2018-05-21T08:35:46.555Z,74225.16
2018-05-21T08:38:22.071Z,74142.20
2018-05-21T08:40:59.288Z,74188.74
2018-05-21T08:43:31.113Z,74209.98
2018-05-21T08:46:06.767Z,74113.87
2018-05-21T08:48:40.529Z,74105.77
2018-05-21T08:54:02.805Z,74145.23
2018-05-21T08:56:35.373Z,74177.61
2018-05-21T08:59:07.915Z,74142.20
2018-05-21T09:01:40.394Z,74083.52
2018-05-21T09:04:19.918Z,74018.77
2018-05-21T09:06:52.290Z,74025.84
2018-05-21T09:09:27.410Z,74051.14
2018-05-21T09:12:08.242Z,73963.12
2018-05-21T09:14:40.701Z,73981.33
2018-05-21T09:17:12.586Z,73996.50
2018-05-21T09:23:23.397Z,73982.34
2018-05-21T09:25:58.407Z,73967.16
2018-05-21T09:28:41.567Z,73956.03
2018-05-21T09:36:43.744Z,74014.72
2018-05-21T09:39:18.679Z,73984.36
2018-05-21T09:41:50.291Z,73861.95
2018-05-21T09:44:21.616Z,73966.16
2018-05-21T09:46:52.650Z,73918.60
2018-05-21T09:49:23.863Z,73896.34
2018-05-21T09:51:55.714Z,73924.67
2018-05-21T09:54:26.915Z,73811.36
2018-05-21T09:56:59.074Z,73808.33
2018-05-21T09:59:41.543Z,73843.73
2018-05-21T10:02:15.031Z,73840.70
2018-05-21T10:04:46.246Z,73821.48
2018-05-21T10:07:25.196Z,73971.21
2018-05-21T10:09:57.498Z,73850.81
2018-05-21T10:12:30.490Z,73822.48
2018-05-21T10:15:02.304Z,73837.66
2018-05-21T10:17:33.903Z,73801.24
2018-05-21T10:20:07.931Z,73812.38
2018-05-21T10:22:43.387Z,73837.66
2018-05-21T10:25:19.235Z,73793.15
2018-05-21T10:27:51.187Z,73783.03
2018-05-21T10:30:22.323Z,73871.05
2018-05-21T10:32:53.689Z,73810.34
2018-05-21T10:38:00.478Z,73795.17
2018-05-21T10:40:32.020Z,73712.22
2018-05-21T10:43:11.719Z,73873.08
2018-05-21T10:46:05.604Z,73768.87
2018-05-21T10:48:59.235Z,73743.58
2018-05-21T10:51:53.706Z,73685.91
2018-05-21T10:54:47.234Z,73746.61
2018-05-21T10:57:41.047Z,73661.63
2018-05-21T11:00:35.320Z,73696.03
2018-05-21T11:03:28.834Z,73639.38
2018-05-21T11:06:22.427Z,73568.56
2018-05-21T11:09:16.021Z,73594.86
2018-05-21T11:12:09.969Z,73622.18
2018-05-21T11:15:03.559Z,73605.99
2018-05-21T11:17:57.404Z,73667.70
2018-05-21T11:20:50.775Z,73559.45
2018-05-21T11:23:37.242Z,73547.31
2018-05-21T11:26:08.788Z,73669.73
2018-05-21T11:28:40.526Z,73533.16
2018-05-21T11:31:12.260Z,73537.20
2018-05-21T11:33:44.387Z,73552.38
2018-05-21T11:36:15.488Z,73509.89
2018-05-21T11:38:46.548Z,73578.68
2018-05-21T11:41:17.923Z,73620.16
2018-05-21T11:43:51.020Z,73663.66
2018-05-21T11:46:23.297Z,73522.03
2018-05-21T11:48:54.615Z,73562.49
2018-05-21T11:51:25.668Z,73493.70
2018-05-21T11:53:59.505Z,73515.95
2018-05-21T11:56:30.548Z,73471.45
2018-05-21T11:59:01.875Z,73510.91
2018-05-21T12:01:33.517Z,73531.13
2018-05-21T12:04:04.609Z,73533.16
2018-05-21T12:06:36.006Z,73470.44
2018-05-21T12:09:08.574Z,73496.73
2018-05-21T12:11:39.629Z,73504.83
2018-05-21T12:14:10.955Z,73472.46
2018-05-21T12:16:42.358Z,73445.15
2018-05-21T12:19:14.455Z,73451.22
2018-05-21T12:21:45.558Z,73403.67
2018-05-21T12:24:17.059Z,73615.09
2018-05-21T12:26:48.419Z,73460.32
2018-05-21T12:29:19.579Z,73448.18
2018-05-21T12:31:51.042Z,73440.09
2018-05-21T12:34:22.619Z,73512.92
2018-05-21T12:36:54.079Z,73550.36
2018-05-21T12:39:25.497Z,73449.19
2018-05-21T12:41:56.708Z,73389.51
2018-05-21T12:44:29.318Z,73463.36
2018-05-21T12:47:01.652Z,73358.16
2018-05-21T12:49:36.911Z,73466.39
2018-05-21T12:52:09.791Z,73361.19
2018-05-21T12:54:40.992Z,73316.67
2018-05-21T12:57:12.214Z,73368.27
2018-05-21T12:59:44.576Z,73651.52
2018-05-21T13:02:15.641Z,73457.28
2018-05-21T13:04:53.447Z,73420.87
2018-05-21T13:07:24.439Z,73368.27
2018-05-21T13:09:55.433Z,73337.92
2018-05-21T13:12:28.668Z,73384.45
2018-05-21T13:15:00.693Z,73417.83
2018-05-21T13:17:32.870Z,73464.37
2018-05-21T13:20:05.439Z,73475.50
2018-05-21T13:22:37.426Z,73413.79
2018-05-21T13:25:09.497Z,73423.91
2018-05-21T13:27:41.562Z,73354.11
2018-05-21T13:30:12.753Z,73404.69
2018-05-21T13:32:44.199Z,73561.48
2018-05-21T13:35:15.180Z,73408.73
2018-05-21T13:37:47.038Z,73373.33
2018-05-21T13:40:21.023Z,73564.52
2018-05-21T13:42:52.006Z,73399.63
2018-05-21T13:45:23.307Z,73422.89
2018-05-21T13:47:56.356Z,73484.59
2018-05-21T13:50:28.620Z,73407.72
2018-05-21T13:53:00.569Z,73575.64
2018-05-21T13:55:43.259Z,73455.27
2018-05-21T14:01:07.430Z,73504.83
2018-05-21T14:03:39.180Z,73457.28
2018-05-21T14:06:10.325Z,73472.46
2018-05-21T14:08:41.375Z,73420.87
2018-05-21T14:11:41.593Z,73403.67
2018-05-21T14:14:13.531Z,73472.46
2018-05-21T14:16:44.695Z,73468.41
2018-05-21T14:23:48.058Z,73579.69
2018-05-21T14:26:22.658Z,73444.14
2018-05-21T14:28:54.895Z,73397.60
2018-05-21T14:31:33.023Z,73479.54
2018-05-21T14:36:44.804Z,73511.91
2018-05-21T14:39:16.229Z,73527.09
2018-05-21T14:41:49.239Z,73478.53
2018-05-21T14:44:21.768Z,73473.47
2018-05-21T14:46:54.675Z,73427.95
2018-05-21T14:49:26.558Z,73426.94
2018-05-21T14:51:57.879Z,73490.67
2018-05-21T14:54:36.886Z,73494.72
2018-05-21T14:57:08.275Z,73423.91
2018-05-21T14:59:40.749Z,73451.22
2018-05-21T15:02:11.999Z,73468.41
2018-05-21T15:04:50.384Z,73445.15
2018-05-21T15:07:27.746Z,73449.19
2018-05-21T15:09:59.895Z,73513.94
2018-05-21T15:12:31.670Z,73495.73
2018-05-21T15:15:07.114Z,73446.16
2018-05-21T15:17:40.645Z,73454.25
2018-05-21T15:20:12.298Z,73515.95
2018-05-21T15:22:43.291Z,73584.75
2018-05-21T15:25:14.686Z,73560.47
2018-05-21T15:27:46.195Z,73554.40
2018-05-21T15:30:17.407Z,73576.66
2018-05-21T15:32:48.599Z,73538.21
2018-05-21T15:35:20.087Z,73564.52
2018-05-21T15:37:51.306Z,73498.77
2018-05-21T15:40:22.728Z,73487.63
2018-05-21T15:42:53.691Z,73516.97
2018-05-21T15:45:25.027Z,73530.13
2018-05-21T15:47:57.312Z,73557.44
2018-05-21T15:50:28.386Z,73497.75
2018-05-21T15:52:59.859Z,73534.17
2018-05-21T15:55:31.244Z,73581.72
2018-05-21T15:58:02.342Z,73564.52
2018-05-21T16:00:36.163Z,73550.36
2018-05-21T16:05:52.859Z,73546.30
2018-05-21T16:08:24.376Z,73504.83
2018-05-21T16:10:55.382Z,73561.48
2018-05-21T16:13:26.778Z,73513.94
2018-05-21T16:15:57.796Z,73576.66
2018-05-21T16:18:29.063Z,73525.06
2018-05-21T16:21:02.387Z,73590.81
2018-05-21T16:23:34.158Z,73631.28
2018-05-21T16:26:05.358Z,73614.09
2018-05-21T16:28:36.676Z,73650.50
2018-05-21T16:31:07.831Z,73618.13
2018-05-21T16:33:39.429Z,73604.98
2018-05-21T16:36:10.506Z,73578.68
2018-05-21T16:38:41.534Z,73563.50
2018-05-21T16:41:13.003Z,73572.61
2018-05-21T16:43:44.292Z,73588.80
2018-05-21T16:46:17.364Z,73620.16
2018-05-21T16:48:48.796Z,73597.90
2018-05-21T16:51:20.155Z,73686.92
2018-05-21T16:53:51.530Z,73629.27
2018-05-21T16:56:22.558Z,73642.41
2018-05-21T16:58:53.638Z,73677.82
2018-05-21T17:01:25.119Z,73652.53
2018-05-21T17:03:56.145Z,73590.81
2018-05-21T17:06:27.787Z,73602.95
2018-05-21T17:08:59.306Z,73620.16
2018-05-21T17:11:30.565Z,73616.11
2018-05-21T17:14:02.028Z,73654.55
2018-05-21T17:16:33.216Z,73667.70
2018-05-21T17:19:04.455Z,73650.50
2018-05-21T17:21:35.904Z,73630.27
2018-05-21T17:24:08.427Z,73683.89
2018-05-21T17:26:39.699Z,73690.97
2018-05-21T17:29:11.547Z,73669.73
2018-05-21T17:31:43.111Z,73694.01
2018-05-21T17:34:14.858Z,73740.54
2018-05-21T17:36:46.102Z,73730.42
2018-05-21T17:39:17.197Z,73713.23
2018-05-21T17:41:48.804Z,73707.16
2018-05-21T17:44:20.340Z,73717.27
2018-05-21T17:46:55.422Z,73699.06
2018-05-21T17:49:26.764Z,73717.27
2018-05-21T17:51:57.799Z,73748.63
2018-05-21T17:54:28.910Z,73736.50
2018-05-21T17:57:00.223Z,73756.73
2018-05-21T17:59:31.188Z,73752.69
2018-05-21T18:02:02.852Z,73790.11
2018-05-21T18:04:34.307Z,73800.23
2018-05-21T18:07:05.446Z,73812.38
2018-05-21T18:09:36.906Z,73786.06
2018-05-21T18:12:12.892Z,73775.95
2018-05-21T18:14:54.859Z,73792.14
2018-05-21T18:17:26.731Z,73821.48
2018-05-21T18:19:57.939Z,73811.36
2018-05-21T18:22:29.682Z,73824.52
2018-05-21T18:25:11.003Z,73852.84
2018-05-21T18:27:42.791Z,73879.14
2018-05-21T18:30:14.215Z,73936.81
2018-05-21T18:32:48.817Z,73907.47
2018-05-21T18:35:22.253Z,73949.97
2018-05-21T18:37:53.371Z,73964.13
2018-05-21T18:40:25.310Z,73913.55
2018-05-21T18:42:57.103Z,73960.08
2018-05-21T18:45:28.312Z,73977.28
2018-05-21T18:47:59.346Z,73963.12
2018-05-21T18:50:31.749Z,73985.38
2018-05-21T18:53:12.967Z,74045.07
2018-05-21T18:55:44.587Z,74035.97
2018-05-21T18:58:19.267Z,74043.05
2018-05-21T19:00:51.813Z,74047.09
2018-05-21T19:03:28.079Z,74027.87
2018-05-21T19:06:00.557Z,74071.38
2018-05-21T19:08:32.965Z,74053.16
2018-05-21T19:11:04.638Z,74040.01
2018-05-21T19:13:36.062Z,74067.33
2018-05-21T19:16:07.429Z,74096.67
2018-05-21T19:18:41.027Z,74123.98
2018-05-21T19:21:16.214Z,74165.47
2018-05-21T19:23:50.689Z,74119.94
2018-05-21T19:26:21.820Z,74179.64
2018-05-21T19:28:53.868Z,74179.64
2018-05-21T19:31:25.400Z,74149.28
2018-05-21T19:34:26.939Z,74175.59
2018-05-21T19:37:05.331Z,74150.30
2018-05-21T19:39:36.492Z,74185.70
2018-05-21T19:42:08.048Z,74195.83
2018-05-21T19:44:41.229Z,74185.70
2018-05-21T19:47:12.318Z,74259.57
2018-05-21T19:49:46.880Z,74220.11
2018-05-21T19:52:19.223Z,74270.70
2018-05-21T19:54:50.845Z,74279.80
2018-05-21T19:57:23.686Z,74351.65
2018-05-21T19:59:55.523Z,74377.95
2018-05-21T20:02:27.047Z,74373.91
2018-05-21T20:04:58.899Z,74369.86
2018-05-21T20:07:30.523Z,74322.30
2018-05-21T20:10:05.943Z,74366.83
2018-05-21T20:12:37.470Z,74324.33
2018-05-21T20:15:09.500Z,74345.58
2018-05-21T20:17:41.051Z,74385.04
2018-05-21T20:20:12.534Z,74398.19
2018-05-21T20:22:43.820Z,74390.09
2018-05-21T20:25:15.401Z,74436.64
2018-05-21T20:27:46.965Z,74451.82
2018-05-21T20:30:18.171Z,74469.02
2018-05-21T20:32:49.271Z,74527.72
2018-05-21T20:35:20.673Z,74497.36
2018-05-21T20:37:51.961Z,74483.19
2018-05-21T20:40:25.939Z,74464.97
2018-05-21T20:42:57.023Z,74454.86
2018-05-21T20:45:28.585Z,74486.22
2018-05-21T20:48:00.248Z,74501.41
2018-05-21T20:50:31.335Z,74526.70
2018-05-21T20:53:03.367Z,74522.66
2018-05-21T20:55:34.386Z,74522.66
2018-05-21T20:58:05.707Z,74557.06
2018-05-21T21:00:39.666Z,74496.34
2018-05-21T21:03:10.778Z,74491.28
2018-05-21T21:05:45.045Z,74480.16
2018-05-21T21:08:16.020Z,74528.73
2018-05-21T21:10:47.931Z,74577.30
2018-05-21T21:13:22.000Z,74579.32
2018-05-21T21:15:53.928Z,74621.82
2018-05-21T21:18:26.005Z,74632.95
2018-05-21T21:20:57.815Z,74658.25
2018-05-21T21:23:29.008Z,74644.09
2018-05-21T21:26:00.363Z,74680.52
2018-05-21T21:28:34.160Z,74642.06
2018-05-21T21:31:07.896Z,74684.56
2018-05-21T21:33:39.196Z,74717.95
2018-05-21T21:36:10.713Z,74727.06
2018-05-21T21:38:42.271Z,74746.29
2018-05-21T21:41:13.568Z,74762.48
2018-05-21T21:43:45.107Z,74760.46
2018-05-21T21:46:16.088Z,74741.23
2018-05-21T21:48:47.394Z,74668.38
2018-05-21T21:51:18.789Z,74675.45
2018-05-21T21:53:50.102Z,74687.59
2018-05-21T21:56:21.707Z,74653.19
2018-05-21T21:58:52.890Z,74658.25
2018-05-21T22:01:35.286Z,74647.13
2018-05-21T22:04:06.599Z,74587.41
2018-05-21T22:06:37.902Z,74623.84
2018-05-21T22:09:09.694Z,74723.02
2018-05-21T22:11:42.126Z,74580.33
2018-05-21T22:14:13.176Z,74592.47
2018-05-21T22:16:44.192Z,74625.88
2018-05-21T22:19:15.558Z,74640.03
2018-05-21T22:21:46.527Z,74607.66
2018-05-21T22:24:17.537Z,74613.73
2018-05-21T22:26:48.843Z,74616.77
2018-05-21T22:29:19.910Z,74674.44
2018-05-21T22:31:51.417Z,74718.97
2018-05-21T22:34:22.687Z,74742.24
2018-05-21T22:36:54.107Z,74718.97
2018-05-21T22:39:25.097Z,74709.86
2018-05-21T22:41:56.359Z,74725.04
2018-05-21T22:44:27.567Z,74751.35
2018-05-21T22:46:58.556Z,74762.48
2018-05-21T22:49:29.843Z,74754.39
2018-05-21T22:52:00.829Z,74722.00
2018-05-21T22:54:38.796Z,74746.29
2018-05-21T22:57:14.892Z,74681.53
2018-05-21T22:59:50.718Z,74674.44
2018-05-21T23:02:22.534Z,74775.64
2018-05-21T23:04:54.047Z,74784.75
2018-05-21T23:07:24.947Z,74724.03
2018-05-21T23:09:56.979Z,74754.39
2018-05-21T23:12:27.982Z,74775.64
2018-05-21T23:14:59.302Z,74816.12
2018-05-21T23:17:33.355Z,74751.35
2018-05-21T23:20:04.397Z,74786.77
2018-05-21T23:25:23.771Z,74792.84
2018-05-21T23:27:55.365Z,74752.36
2018-05-21T23:30:26.871Z,74783.73
2018-05-21T23:32:58.771Z,74792.84
2018-05-21T23:35:30.047Z,74862.67
2018-05-21T23:38:01.848Z,74727.06
2018-05-21T23:50:08.327Z,74839.39
2018-05-21T23:52:39.620Z,74859.63
2018-05-21T23:55:10.643Z,74875.83
2018-05-21T23:57:42.395Z,74879.88
